Ever Delight — 3FCB8 — position and weather

sailwx.info

Track history (hours):
 
Tides and Currents Weather Stations Pressure Air Temp Water Temp Dewpoint Dewpoint Depression Visibility Wind Speed Wind Dir Waves Ship Positions

Ever Delight

Last reported at 2015-May-27 11:24 UTC. Time now 2015-May-27 11:59 UTC.
Position N 29°57' E 121°53'.

Type: Cargo ship. MMSI: 351936000.

Date/timePositionNaut miles runAvg speedWind from/ knotsBaromVisibWave heightAir tempDewpointWater temp
2015-May-27 11:24N 29°57' E 121°53'0 0.1
2015-May-27 09:15N 29°57' E 121°53'1 1.6
2015-May-27 08:33N 29°57' E 121°54'1211.7
2015-May-27 07:33N 29°56' E 122°07'1212.0
2015-May-27 06:34N 29°47' E 122°17'9 9.5
2015-May-27 05:34N 29°46' E 122°28'0 0.1
2015-May-27 03:22N 29°46' E 122°27'1 1.6
2015-May-27 02:33N 29°45' E 122°28'1511.3
2015-May-27 01:13N 29°41' E 122°45'4314.4
2015-May-26 22:16N 30°06' E 123°25'1114.5
2015-May-26 21:33N 30°13' E 123°34'1514.6
2015-May-26 20:32N 30°22' E 123°48'6015.1
2015-May-26 16:32N 31°01' E 124°41'1515.6
2015-May-26 15:34N 31°12' E 124°55'1615.6
2015-May-26 14:31N 31°24' E 125°07'1515.5
2015-May-26 13:33N 31°34' E 125°20'1515.3
2015-May-26 12:33N 31°45' E 125°33'1515.0
2015-May-26 11:33N 31°55' E 125°45'1614.9
2015-May-26 10:26N 32°07' E 125°59'1314.9
2015-May-26 09:33N 32°16' E 126°10'2015.1
2015-May-26 08:13N 32°31' E 126°27'3015.0
2015-May-26 06:11N 32°52' E 126°53'10014.6
2015-May-25 23:22N 34°03' E 128°17'1114.1
2015-May-25 22:33N 34°10' E 128°27'  
2015-May-17 18:00N 47°36' W 172°24'   340 / 231013.0 0.3 1.5 6.0 6.0 5.0
Track history (hours):
 
Tides and Currents Weather Stations Pressure Air Temp Water Temp Dewpoint Dewpoint Depression Visibility Wind Speed Wind Dir Waves Ship Positions

Ever Delight

Last reported at 2015-May-27 11:24 UTC. Time now 2015-May-27 11:59 UTC.
Position N 29°57' E 121°53'.

Type: Cargo ship. MMSI: 351936000.

Date/timePositionNaut miles runAvg speedWind from/ knotsBaromVisibWave heightAir tempDewpointWater temp
2015-May-27 11:24N 29°57' E 121°53'0 0.1
2015-May-27 09:15N 29°57' E 121°53'1 1.6
2015-May-27 08:33N 29°57' E 121°54'1211.7
2015-May-27 07:33N 29°56' E 122°07'1212.0
2015-May-27 06:34N 29°47' E 122°17'9 9.5
2015-May-27 05:34N 29°46' E 122°28'0 0.1
2015-May-27 03:22N 29°46' E 122°27'1 1.6
2015-May-27 02:33N 29°45' E 122°28'1511.3
2015-May-27 01:13N 29°41' E 122°45'4314.4
2015-May-26 22:16N 30°06' E 123°25'1114.5
2015-May-26 21:33N 30°13' E 123°34'1514.6
2015-May-26 20:32N 30°22' E 123°48'6015.1
2015-May-26 16:32N 31°01' E 124°41'1515.6
2015-May-26 15:34N 31°12' E 124°55'1615.6
2015-May-26 14:31N 31°24' E 125°07'1515.5
2015-May-26 13:33N 31°34' E 125°20'1515.3
2015-May-26 12:33N 31°45' E 125°33'1515.0
2015-May-26 11:33N 31°55' E 125°45'1614.9
2015-May-26 10:26N 32°07' E 125°59'1314.9
2015-May-26 09:33N 32°16' E 126°10'2015.1
2015-May-26 08:13N 32°31' E 126°27'3015.0
2015-May-26 06:11N 32°52' E 126°53'10014.6
2015-May-25 23:22N 34°03' E 128°17'1114.1
2015-May-25 22:33N 34°10' E 128°27'  
2015-May-17 18:00N 47°36' W 172°24'   340 / 231013.0 0.3 1.5 6.0 6.0 5.0

Dump ship's entire track history